CTV175 WARR-WIHH
Flight info
| Callsign | CTV175 |
|---|---|
| Flight time | N/A |
| Altitude | 34000 |
| Route | LASEM T2 KALUT T6 KURUS |
| Aircraft | A320/M-SDE3FGHIRWY/LB1 |
Departure
| Time | 2026-05-08 06:49 |
|---|---|
| Airport | Juanda International Airport (WARR) |
Arrival
| Time | N/A |
|---|---|
| Airport | Halim Perdanakusuma International Airport (WIHH) |
| Time | Latitude | Longitude | Altitude | Speed | Heading |
|---|---|---|---|---|---|
| 2026-05-08 06:32 | -7.37540 | 112.79186 | 11 ft | 0 kts | 9° |
| 2026-05-08 06:39 | -7.37544 | 112.79185 | 11 ft | 2 kts | 9° |
| 2026-05-08 06:39 | -7.37559 | 112.79183 | 11 ft | 2 kts | 9° |
| 2026-05-08 06:39 | -7.37574 | 112.79181 | 11 ft | 2 kts | 9° |
| 2026-05-08 06:40 | -7.37589 | 112.79179 | 11 ft | 2 kts | 9° |
| 2026-05-08 06:40 | -7.37604 | 112.79176 | 11 ft | 2 kts | 9° |
| 2026-05-08 06:40 | -7.37615 | 112.79174 | 11 ft | 0 kts | 9° |
| 2026-05-08 06:40 | -7.37627 | 112.79175 | 11 ft | 2 kts | 328° |
| 2026-05-08 06:41 | -7.37636 | 112.79185 | 11 ft | 0 kts | 284° |
| 2026-05-08 06:41 | -7.37637 | 112.79191 | 11 ft | 1 kts | 277° |
| 2026-05-08 06:41 | -7.37637 | 112.79193 | 11 ft | 0 kts | 278° |
| 2026-05-08 06:43 | -7.37634 | 112.79172 | 11 ft | 8 kts | 278° |
| 2026-05-08 06:43 | -7.37636 | 112.79112 | 11 ft | 8 kts | 233° |
| 2026-05-08 06:44 | -7.37700 | 112.79092 | 11 ft | 11 kts | 190° |
| 2026-05-08 06:44 | -7.37784 | 112.79078 | 11 ft | 12 kts | 189° |
| 2026-05-08 06:44 | -7.37858 | 112.79034 | 12 ft | 15 kts | 253° |
| 2026-05-08 06:44 | -7.37846 | 112.78912 | 12 ft | 17 kts | 279° |
| 2026-05-08 06:45 | -7.37826 | 112.78790 | 12 ft | 17 kts | 279° |
| 2026-05-08 06:45 | -7.37806 | 112.78670 | 12 ft | 17 kts | 279° |
| 2026-05-08 06:45 | -7.37787 | 112.78552 | 12 ft | 16 kts | 279° |
| 2026-05-08 06:45 | -7.37768 | 112.78436 | 13 ft | 16 kts | 279° |
| 2026-05-08 06:46 | -7.37749 | 112.78317 | 13 ft | 18 kts | 279° |
| 2026-05-08 06:46 | -7.37725 | 112.78168 | 13 ft | 23 kts | 279° |
| 2026-05-08 06:46 | -7.37699 | 112.78011 | 13 ft | 22 kts | 279° |
| 2026-05-08 06:46 | -7.37674 | 112.77859 | 14 ft | 21 kts | 279° |
| 2026-05-08 06:47 | -7.37650 | 112.77712 | 14 ft | 20 kts | 279° |
| 2026-05-08 06:47 | -7.37629 | 112.77573 | 14 ft | 19 kts | 279° |
| 2026-05-08 06:47 | -7.37608 | 112.77436 | 14 ft | 15 kts | 269° |
| 2026-05-08 06:47 | -7.37676 | 112.77378 | 14 ft | 11 kts | 191° |
| 2026-05-08 06:48 | -7.37755 | 112.77366 | 14 ft | 6 kts | 186° |
| 2026-05-08 06:48 | -7.37774 | 112.77387 | 14 ft | 3 kts | 98° |
| 2026-05-08 06:48 | -7.37802 | 112.77562 | 14 ft | 54 kts | 99° |
| 2026-05-08 06:48 | -7.37900 | 112.78163 | 14 ft | 117 kts | 99° |
| 2026-05-08 06:49 | -7.38061 | 112.79155 | 43 ft | 164 kts | 98° |
| 2026-05-08 06:49 | -7.38266 | 112.80320 | 586 ft | 167 kts | 99° |
| 2026-05-08 06:49 | -7.38493 | 112.81481 | 1203 ft | 170 kts | 99° |
| 2026-05-08 06:49 | -7.38727 | 112.82649 | 1796 ft | 171 kts | 99° |
| 2026-05-08 06:50 | -7.38972 | 112.83871 | 2087 ft | 182 kts | 99° |
| 2026-05-08 06:50 | -7.39229 | 112.85165 | 2345 ft | 194 kts | 99° |
| 2026-05-08 06:50 | -7.39504 | 112.86562 | 2612 ft | 208 kts | 99° |
| 2026-05-08 06:50 | -7.39802 | 112.88097 | 2813 ft | 229 kts | 99° |
| 2026-05-08 06:51 | -7.40124 | 112.89731 | 3132 ft | 246 kts | 97° |
| 2026-05-08 06:51 | -7.39989 | 112.91497 | 3433 ft | 261 kts | 65° |
| 2026-05-08 06:51 | -7.38790 | 112.92899 | 4008 ft | 267 kts | 30° |
| 2026-05-08 06:51 | -7.37020 | 112.93426 | 4720 ft | 270 kts | 3° |
| 2026-05-08 06:52 | -7.35168 | 112.93098 | 5382 ft | 276 kts | 336° |
| 2026-05-08 06:52 | -7.33632 | 112.91906 | 6063 ft | 282 kts | 309° |
| 2026-05-08 06:52 | -7.32579 | 112.90215 | 6796 ft | 285 kts | 300° |
| 2026-05-08 06:52 | -7.31620 | 112.88448 | 7497 ft | 288 kts | 299° |
| 2026-05-08 06:53 | -7.30654 | 112.86645 | 8207 ft | 291 kts | 299° |
| 2026-05-08 06:53 | -7.29678 | 112.84831 | 8903 ft | 293 kts | 299° |
| 2026-05-08 06:53 | -7.28693 | 112.83015 | 9569 ft | 296 kts | 300° |
| 2026-05-08 06:53 | -7.27698 | 112.81187 | 10208 ft | 298 kts | 300° |
| 2026-05-08 06:54 | -7.26668 | 112.79301 | 10580 ft | 311 kts | 299° |
| 2026-05-08 06:54 | -7.25593 | 112.77336 | 10914 ft | 323 kts | 299° |
| 2026-05-08 06:54 | -7.24492 | 112.75324 | 11476 ft | 327 kts | 299° |
| 2026-05-08 06:54 | -7.23388 | 112.73307 | 12079 ft | 329 kts | 299° |
| 2026-05-08 06:55 | -7.22262 | 112.71252 | 12651 ft | 332 kts | 299° |
| 2026-05-08 06:55 | -7.21139 | 112.69202 | 13205 ft | 335 kts | 299° |
| 2026-05-08 06:55 | -7.19986 | 112.67098 | 13762 ft | 338 kts | 299° |
| 2026-05-08 06:55 | -7.18850 | 112.65027 | 14297 ft | 340 kts | 299° |
| 2026-05-08 06:56 | -7.17687 | 112.62908 | 14831 ft | 343 kts | 299° |
| 2026-05-08 06:56 | -7.16519 | 112.60778 | 15355 ft | 346 kts | 299° |
| 2026-05-08 06:56 | -7.15335 | 112.58623 | 15873 ft | 348 kts | 300° |
| 2026-05-08 06:56 | -7.14147 | 112.56458 | 16380 ft | 351 kts | 300° |
| 2026-05-08 06:57 | -7.12951 | 112.54281 | 16878 ft | 354 kts | 300° |
| 2026-05-08 06:57 | -7.11751 | 112.52095 | 17366 ft | 356 kts | 300° |
| 2026-05-08 06:57 | -7.10533 | 112.49879 | 17851 ft | 359 kts | 300° |
| 2026-05-08 06:57 | -7.09301 | 112.47636 | 18331 ft | 362 kts | 300° |
| 2026-05-08 06:58 | -7.08069 | 112.45395 | 18803 ft | 364 kts | 300° |
| 2026-05-08 06:58 | -7.06823 | 112.43126 | 19269 ft | 367 kts | 300° |
| 2026-05-08 06:58 | -7.05577 | 112.40860 | 19726 ft | 370 kts | 300° |
| 2026-05-08 06:58 | -7.04315 | 112.38564 | 20178 ft | 372 kts | 300° |
| 2026-05-08 06:59 | -7.03055 | 112.36272 | 20616 ft | 375 kts | 300° |
| 2026-05-08 06:59 | -7.01777 | 112.33948 | 21039 ft | 378 kts | 300° |
| 2026-05-08 06:59 | -7.00486 | 112.31600 | 21449 ft | 380 kts | 300° |
| 2026-05-08 06:59 | -6.99201 | 112.29266 | 21846 ft | 383 kts | 300° |
| 2026-05-08 07:00 | -6.97891 | 112.26884 | 22242 ft | 386 kts | 300° |
| 2026-05-08 07:00 | -6.96570 | 112.24485 | 22628 ft | 388 kts | 300° |
| 2026-05-08 07:00 | -6.95246 | 112.22078 | 23005 ft | 391 kts | 300° |
| 2026-05-08 07:00 | -6.93907 | 112.19646 | 23376 ft | 393 kts | 300° |
| 2026-05-08 07:01 | -6.92563 | 112.17203 | 23740 ft | 396 kts | 300° |
| 2026-05-08 07:01 | -6.91214 | 112.14753 | 24095 ft | 398 kts | 300° |
| 2026-05-08 07:01 | -6.89867 | 112.12308 | 24441 ft | 401 kts | 300° |
| 2026-05-08 07:01 | -6.88499 | 112.09823 | 24785 ft | 403 kts | 299° |
| 2026-05-08 07:02 | -6.87133 | 112.07343 | 25121 ft | 405 kts | 299° |
| 2026-05-08 07:02 | -6.85740 | 112.04813 | 25473 ft | 407 kts | 299° |
| 2026-05-08 07:02 | -6.84351 | 112.02291 | 25834 ft | 408 kts | 300° |
| 2026-05-08 07:02 | -6.82971 | 111.99788 | 26165 ft | 410 kts | 300° |
| 2026-05-08 07:03 | -6.81562 | 111.97231 | 26490 ft | 412 kts | 300° |
| 2026-05-08 07:03 | -6.80164 | 111.94694 | 26805 ft | 414 kts | 300° |
| 2026-05-08 07:03 | -6.78748 | 111.92126 | 27119 ft | 416 kts | 300° |
| 2026-05-08 07:03 | -6.77326 | 111.89548 | 27429 ft | 418 kts | 300° |
| 2026-05-08 07:04 | -6.75904 | 111.86970 | 27742 ft | 419 kts | 300° |
| 2026-05-08 07:04 | -6.74486 | 111.84399 | 28058 ft | 420 kts | 300° |
| 2026-05-08 07:04 | -6.73037 | 111.81773 | 28331 ft | 423 kts | 300° |
| 2026-05-08 07:04 | -6.71602 | 111.79174 | 28586 ft | 425 kts | 300° |
| 2026-05-08 07:05 | -6.70137 | 111.76520 | 28856 ft | 427 kts | 300° |
| 2026-05-08 07:05 | -6.68692 | 111.73904 | 29122 ft | 429 kts | 300° |
| 2026-05-08 07:05 | -6.67230 | 111.71256 | 29383 ft | 431 kts | 300° |
| 2026-05-08 07:05 | -6.65759 | 111.68597 | 29638 ft | 433 kts | 300° |
| 2026-05-08 07:06 | -6.64276 | 111.65912 | 29889 ft | 434 kts | 300° |
| 2026-05-08 07:06 | -6.62789 | 111.63221 | 30135 ft | 436 kts | 300° |
| 2026-05-08 07:06 | -6.61317 | 111.60535 | 30373 ft | 438 kts | 299° |
| 2026-05-08 07:06 | -6.59878 | 111.57792 | 30611 ft | 439 kts | 298° |
| 2026-05-08 07:07 | -6.58460 | 111.55045 | 30847 ft | 441 kts | 298° |
| 2026-05-08 07:07 | -6.57036 | 111.52284 | 31074 ft | 442 kts | 298° |
| 2026-05-08 07:07 | -6.55609 | 111.49523 | 31298 ft | 444 kts | 298° |
| 2026-05-08 07:07 | -6.54178 | 111.46759 | 31521 ft | 445 kts | 298° |
| 2026-05-08 07:08 | -6.52732 | 111.43971 | 31805 ft | 445 kts | 298° |
| 2026-05-08 07:08 | -6.51283 | 111.41183 | 32108 ft | 444 kts | 298° |
| 2026-05-08 07:08 | -6.49842 | 111.38410 | 32358 ft | 444 kts | 298° |
| 2026-05-08 07:08 | -6.48394 | 111.35626 | 32574 ft | 445 kts | 298° |
| 2026-05-08 07:09 | -6.46953 | 111.32858 | 32783 ft | 446 kts | 298° |
| 2026-05-08 07:09 | -6.45492 | 111.30050 | 32995 ft | 447 kts | 298° |
| 2026-05-08 07:09 | -6.44052 | 111.27283 | 33202 ft | 447 kts | 298° |
| 2026-05-08 07:09 | -6.42587 | 111.24467 | 33407 ft | 448 kts | 298° |
| 2026-05-08 07:10 | -6.41137 | 111.21683 | 33604 ft | 449 kts | 298° |
| 2026-05-08 07:10 | -6.39673 | 111.18870 | 33750 ft | 450 kts | 298° |
| 2026-05-08 07:10 | -6.36745 | 111.13247 | 33759 ft | 450 kts | 298° |
| 2026-05-08 07:11 | -6.33777 | 111.07629 | 33761 ft | 450 kts | 299° |
| 2026-05-08 07:11 | -6.30785 | 111.02067 | 33761 ft | 451 kts | 299° |
| 2026-05-08 07:12 | -6.27774 | 110.96469 | 33761 ft | 451 kts | 299° |
| 2026-05-08 07:12 | -6.24777 | 110.90894 | 33761 ft | 451 kts | 299° |
| 2026-05-08 07:13 | -6.21758 | 110.85277 | 33761 ft | 451 kts | 299° |
| 2026-05-08 07:13 | -6.18739 | 110.79661 | 33761 ft | 451 kts | 299° |
| 2026-05-08 07:14 | -6.15740 | 110.74084 | 33762 ft | 451 kts | 299° |
| 2026-05-08 07:14 | -6.12706 | 110.68444 | 33761 ft | 451 kts | 299° |
| 2026-05-08 07:15 | -6.09709 | 110.62875 | 33761 ft | 451 kts | 299° |
| 2026-05-08 07:15 | -6.06701 | 110.57287 | 33761 ft | 451 kts | 299° |
| 2026-05-08 07:16 | -6.04371 | 110.52961 | 33761 ft | 451 kts | 299° |